Terminal Aerodrome Forecast
Issued by NWS

Home | Current Version | Previous Version | Text Only | Print | Product List | Glossary On
Versions: 1 2 3 4 5 6 7 8 9 10 11 12 13 14 15 16 17 18 19 20 21 22 23 24
000
FTUS43 KLSX 020327 AAA
TAFCPS
TAF AMD
KCPS 020327Z 0203/0224 10005KT P6SM VCTS BKN050CB
      TEMPO 0203/0205 2SM +TSRA BR OVC030CB
     FM020700 VRB04KT 4SM BR VCSH OVC030
     FM020900 03006KT 3SM BR VCSH OVC010
     FM021500 01007KT 6SM BR OVC020
     FM022100 35007KT P6SM BKN035=

USA.gov is the U.S. government's official web portal to all federal, state and local government web resources and services.